Time;durP1;ratioP1;P1;durP2;ratioP2;P2;SDS_P1;SDS_P2;PMS_P1;PMS_P2;Temp;Humidity;BMP_temperature;BMP_pressure;BME280_temperature;BME280_humidity;BME280_pressure;Samples;Min_cycle;Max_cycle;Signal;HPM_P1;HPM_P2
2022/09/29 00:01:10;;;;;;;4.95;3.38;;;7.20;99.90;;;;;;5031526;28;20049;-83
2022/09/29 00:03:36;;;;;;;6.93;4.10;;;7.20;99.90;;;;;;5023821;28;20049;-82
2022/09/29 00:06:02;;;;;;;4.50;3.20;;;7.20;99.90;;;;;;5029138;28;20033;-82
2022/09/29 00:08:29;;;;;;;4.93;3.47;;;7.10;99.90;;;;;;5034377;28;20079;-81
2022/09/29 00:10:56;;;;;;;6.78;3.65;;;7.10;99.90;;;;;;5032080;28;20046;-85
2022/09/29 00:13:22;;;;;;;6.10;3.83;;;7.10;99.90;;;;;;5004141;28;20065;-84
2022/09/29 00:15:56;;;;;;;7.18;3.60;;;7.10;99.90;;;;;;5001366;28;20046;-81
2022/09/29 00:18:22;;;;;;;5.03;3.28;;;7.10;99.90;;;;;;5039864;28;20128;-84
2022/09/29 00:20:59;;;;;;;5.32;3.88;;;7.10;99.90;;;;;;5038147;28;20120;-82
2022/09/29 00:23:26;;;;;;;8.38;3.88;;;7.10;99.90;;;;;;5036351;28;20045;-83
2022/09/29 00:26:07;;;;;;;4.93;3.60;;;7.00;99.90;;;;;;5017173;28;20052;-81
2022/09/29 00:28:34;;;;;;;4.32;3.20;;;7.00;99.90;;;;;;5040359;28;20111;-82
2022/09/29 00:31:01;;;;;;;6.65;3.20;;;7.00;99.90;;;;;;5037315;28;20040;-81
2022/09/29 00:33:34;;;;;;;4.90;3.72;;;6.90;99.90;;;;;;5037228;28;20045;-81
2022/09/29 00:36:12;;;;;;;5.60;3.03;;;6.90;99.90;;;;;;5036686;28;20041;-81
2022/09/29 00:38:39;;;;;;;5.57;3.90;;;6.90;99.90;;;;;;5021660;28;20049;-88
2022/09/29 00:41:07;;;;;;;6.18;3.42;;;6.90;99.90;;;;;;5035042;28;20053;-81
2022/09/29 00:43:59;;;;;;;6.80;3.55;;;6.90;99.90;;;;;;5021132;28;20045;-81
2022/09/29 00:46:43;;;;;;;4.47;3.42;;;6.90;99.90;;;;;;5015844;28;20042;-83
2022/09/29 00:49:32;;;;;;;5.25;3.35;;;6.80;99.90;;;;;;5033216;28;20053;-84
2022/09/29 00:52:15;;;;;;;4.90;3.65;;;6.80;99.90;;;;;;5019222;28;20044;-81
2022/09/29 00:54:46;;;;;;;5.70;3.20;;;6.80;99.90;;;;;;5034295;28;20517;-81
2022/09/29 00:57:15;;;;;;;8.35;4.47;;;6.80;99.90;;;;;;5034360;28;20050;-87
2022/09/29 00:59:49;;;;;;;5.60;3.95;;;6.80;99.90;;;;;;5036542;28;20546;-84
2022/09/29 01:02:17;;;;;;;4.65;3.38;;;6.80;99.90;;;;;;5030686;28;20061;-82
2022/09/29 01:04:45;;;;;;;5.40;4.00;;;6.70;99.90;;;;;;5037021;28;20490;-82
2022/09/29 01:07:11;;;;;;;7.45;3.53;;;6.70;99.90;;;;;;5012842;28;20059;-81
2022/09/29 01:09:40;;;;;;;4.30;3.22;;;6.60;99.90;;;;;;5029426;28;20104;-81
2022/09/29 01:12:06;;;;;;;7.03;3.70;;;6.60;99.90;;;;;;5017893;28;20418;-81
2022/09/29 01:14:33;;;;;;;6.82;3.60;;;6.60;99.90;;;;;;5015855;28;20072;-81
2022/09/29 01:17:00;;;;;;;6.57;3.75;;;6.50;99.90;;;;;;4993919;28;20116;-81
2022/09/29 01:20:03;;;;;;;18.67;3.60;;;6.50;99.90;;;;;;5029639;28;20396;-81
2022/09/29 01:22:51;;;;;;;6.97;3.78;;;6.50;99.90;;;;;;5011833;28;20042;-82
2022/09/29 01:26:02;;;;;;;4.88;3.47;;;6.50;99.90;;;;;;5021507;28;20376;-82
2022/09/29 01:28:48;;;;;;;4.07;3.35;;;6.40;99.90;;;;;;5041017;28;20073;-81
2022/09/29 01:31:41;;;;;;;6.57;4.22;;;6.40;99.90;;;;;;5012641;28;20561;-81
2022/09/29 01:34:24;;;;;;;5.82;4.03;;;6.30;99.90;;;;;;4997575;28;20095;-84
2022/09/29 01:37:13;;;;;;;5.93;4.32;;;6.30;99.90;;;;;;5036584;28;20053;-83
2022/09/29 01:39:46;;;;;;;6.60;4.90;;;6.30;99.90;;;;;;5036216;28;20371;-82
2022/09/29 01:42:18;;;;;;;7.07;4.65;;;6.20;99.90;;;;;;5031395;28;20041;-82
2022/09/29 01:45:05;;;;;;;6.55;4.80;;;6.10;99.90;;;;;;5032658;28;20125;-82
2022/09/29 01:47:39;;;;;;;8.18;4.43;;;6.10;99.90;;;;;;5013261;28;20599;-87
2022/09/29 01:50:21;;;;;;;9.45;4.70;;;6.10;99.90;;;;;;5035661;28;20041;-82
2022/09/29 01:52:56;;;;;;;7.05;4.75;;;6.00;99.90;;;;;;5029663;28;20500;-82
2022/09/29 01:55:27;;;;;;;7.32;4.45;;;6.10;99.90;;;;;;5035301;28;20033;-82
2022/09/29 01:58:13;;;;;;;6.88;3.97;;;6.10;99.90;;;;;;5033857;28;20033;-82
2022/09/29 02:00:47;;;;;;;6.65;4.60;;;6.10;99.90;;;;;;5036019;28;20037;-84
2022/09/29 02:03:21;;;;;;;7.07;4.65;;;6.00;99.90;;;;;;5012648;28;20360;-82
2022/09/29 02:05:51;;;;;;;6.28;4.60;;;6.00;99.90;;;;;;5032633;28;20426;-84
2022/09/29 02:08:31;;;;;;;6.55;4.47;;;6.00;99.90;;;;;;5035569;28;20449;-82
2022/09/29 02:11:06;;;;;;;6.90;5.45;;;5.90;99.90;;;;;;5020437;28;20364;-82
2022/09/29 02:13:39;;;;;;;7.25;4.10;;;5.90;99.90;;;;;;5033917;28;20479;-86
2022/09/29 02:16:10;;;;;;;7.25;4.88;;;5.90;99.90;;;;;;4999818;28;20041;-82
2022/09/29 02:19:03;;;;;;;6.60;4.45;;;5.90;99.90;;;;;;5036286;28;20574;-82
2022/09/29 02:21:29;;;;;;;5.43;4.10;;;6.00;99.90;;;;;;5030657;28;20060;-82
2022/09/29 02:23:55;;;;;;;7.97;4.60;;;6.00;99.90;;;;;;5032413;28;20041;-82
2022/09/29 02:26:24;;;;;;;7.93;5.10;;;6.00;99.90;;;;;;5033536;28;20041;-86
2022/09/29 02:28:51;;;;;;;8.57;5.13;;;6.00;99.90;;;;;;4999318;28;20172;-82
2022/09/29 02:31:18;;;;;;;7.70;5.00;;;6.00;99.90;;;;;;5030643;28;20127;-84
2022/09/29 02:33:44;;;;;;;7.78;4.63;;;6.00;99.90;;;;;;5018730;28;20599;-82
2022/09/29 02:36:39;;;;;;;5.82;4.18;;;5.90;99.90;;;;;;5034615;28;20084;-83
2022/09/29 02:39:27;;;;;;;5.72;4.35;;;5.90;99.90;;;;;;5018371;28;20043;-82
2022/09/29 02:41:59;;;;;;;7.35;4.55;;;5.90;99.90;;;;;;5019008;28;20152;-86
2022/09/29 02:44:37;;;;;;;6.32;4.70;;;5.80;99.90;;;;;;5029232;28;20377;-82
2022/09/29 02:47:43;;;;;;;7.10;4.82;;;5.80;99.90;;;;;;5024826;28;20061;-83
2022/09/29 02:50:27;;;;;;;9.48;4.30;;;5.70;99.90;;;;;;5012177;28;20053;-83
2022/09/29 02:53:11;;;;;;;8.90;4.68;;;5.60;99.90;;;;;;5032986;28;20071;-82
2022/09/29 02:55:46;;;;;;;6.90;4.72;;;5.60;99.90;;;;;;5015504;28;20060;-82
2022/09/29 02:58:19;;;;;;;7.05;3.67;;;5.50;99.90;;;;;;5036764;28;20091;-82
2022/09/29 03:00:45;;;;;;;7.53;3.70;;;5.50;99.90;;;;;;5036213;28;20037;-82
2022/09/29 03:03:11;;;;;;;6.57;4.25;;;5.50;99.90;;;;;;5030923;28;20069;-83
2022/09/29 03:05:37;;;;;;;4.95;4.30;;;5.60;99.90;;;;;;5027587;28;20049;-84
2022/09/29 03:08:04;;;;;;;7.03;4.60;;;5.50;99.90;;;;;;5036391;28;20419;-82
2022/09/29 03:10:29;;;;;;;7.57;5.30;;;5.50;99.90;;;;;;5019999;28;20124;-82
2022/09/29 03:12:55;;;;;;;7.38;4.68;;;5.50;99.90;;;;;;5034559;28;20685;-85
2022/09/29 03:15:21;;;;;;;6.40;4.28;;;5.50;99.90;;;;;;5015847;28;20092;-82
2022/09/29 03:17:47;;;;;;;6.47;4.50;;;5.40;99.90;;;;;;5037335;28;20072;-85
2022/09/29 03:20:12;;;;;;;5.68;3.78;;;5.40;99.90;;;;;;5017223;28;20064;-81
2022/09/29 03:22:38;;;;;;;5.55;4.25;;;5.40;99.90;;;;;;5003367;28;20072;-81
2022/09/29 03:25:05;;;;;;;5.07;4.22;;;5.40;99.90;;;;;;5033238;28;20046;-81
2022/09/29 03:27:32;;;;;;;10.27;4.60;;;5.40;99.90;;;;;;4998561;28;20487;-83
2022/09/29 03:29:57;;;;;;;7.57;4.75;;;5.40;99.90;;;;;;5021143;28;20083;-81
2022/09/29 03:32:23;;;;;;;7.55;4.63;;;5.40;99.90;;;;;;5026838;28;20070;-81
2022/09/29 03:34:49;;;;;;;7.25;4.85;;;5.40;99.90;;;;;;5032718;28;20041;-81
2022/09/29 03:37:14;;;;;;;7.63;4.55;;;5.40;99.90;;;;;;5016275;28;20380;-86
2022/09/29 03:39:40;;;;;;;5.68;4.40;;;5.40;99.90;;;;;;5017915;28;20041;-81
2022/09/29 03:42:06;;;;;;;7.55;5.30;;;5.40;99.90;;;;;;4996332;28;20159;-81
2022/09/29 03:44:31;;;;;;;6.47;5.65;;;5.60;99.90;;;;;;5010971;28;20072;-81
2022/09/29 03:46:57;;;;;;;9.60;5.22;;;5.50;99.90;;;;;;5026455;28;20063;-82
2022/09/29 03:49:23;;;;;;;6.55;4.78;;;5.60;99.90;;;;;;5017132;28;20072;-81
2022/09/29 03:51:48;;;;;;;6.43;4.88;;;5.50;99.90;;;;;;5030532;28;20490;-83
2022/09/29 03:54:14;;;;;;;5.85;4.40;;;5.60;99.90;;;;;;5018514;28;20379;-83
2022/09/29 03:56:40;;;;;;;6.30;5.10;;;5.60;99.90;;;;;;5014037;28;20052;-81
2022/09/29 03:59:08;;;;;;;6.15;4.63;;;5.60;99.90;;;;;;5016393;28;20595;-81
2022/09/29 04:01:34;;;;;;;6.82;4.88;;;5.60;99.90;;;;;;5033626;28;20056;-82
2022/09/29 04:04:00;;;;;;;22.15;5.57;;;5.50;99.90;;;;;;5036428;28;20045;-82
2022/09/29 04:06:26;;;;;;;6.50;4.95;;;5.50;99.90;;;;;;5035755;28;20438;-81
2022/09/29 04:08:51;;;;;;;11.75;5.97;;;5.50;99.90;;;;;;5040387;28;20041;-81
2022/09/29 04:11:17;;;;;;;6.55;4.82;;;5.40;99.90;;;;;;5041190;28;20076;-82
2022/09/29 04:13:42;;;;;;;6.38;4.85;;;5.40;99.90;;;;;;5026121;28;20095;-82
2022/09/29 04:16:08;;;;;;;7.32;5.30;;;5.30;99.90;;;;;;5038351;28;20033;-82
2022/09/29 04:18:35;;;;;;;10.30;5.18;;;5.30;99.90;;;;;;5022912;28;20045;-82
2022/09/29 04:21:07;;;;;;;10.90;5.28;;;5.30;99.90;;;;;;5035041;28;20052;-81
2022/09/29 04:23:34;;;;;;;7.60;5.30;;;5.20;99.90;;;;;;5036034;28;20115;-81
2022/09/29 04:26:02;;;;;;;9.13;5.97;;;5.30;99.90;;;;;;5016270;28;20096;-81
2022/09/29 04:28:30;;;;;;;8.02;5.30;;;5.20;99.90;;;;;;5038429;28;20043;-83
2022/09/29 04:30:56;;;;;;;9.40;6.32;;;5.20;99.90;;;;;;5037516;28;20423;-82
2022/09/29 04:33:22;;;;;;;8.05;4.93;;;5.10;99.90;;;;;;5024635;28;20124;-81
2022/09/29 04:35:47;;;;;;;10.52;5.90;;;5.10;99.90;;;;;;5018243;28;20403;-82
2022/09/29 04:38:13;;;;;;;8.60;5.53;;;5.20;99.90;;;;;;5043580;28;20151;-81
2022/09/29 04:40:39;;;;;;;7.70;5.00;;;5.20;99.90;;;;;;5053720;28;20132;-81
2022/09/29 04:43:05;;;;;;;7.88;5.38;;;5.20;99.90;;;;;;5020963;28;20050;-81
2022/09/29 04:45:31;;;;;;;7.85;5.13;;;5.20;99.90;;;;;;5020442;28;20068;-80
2022/09/29 04:47:56;;;;;;;9.38;5.85;;;5.10;99.90;;;;;;5008952;28;20033;-81
2022/09/29 04:50:23;;;;;;;14.38;5.88;;;5.10;99.90;;;;;;5036613;28;20049;-81
2022/09/29 04:52:49;;;;;;;18.15;7.70;;;5.10;99.90;;;;;;5024272;28;20049;-83
2022/09/29 04:55:14;;;;;;;9.65;6.78;;;5.00;99.90;;;;;;5039275;28;20033;-82
2022/09/29 04:57:42;;;;;;;11.25;5.97;;;5.00;99.90;;;;;;5032342;28;20132;-81
2022/09/29 05:00:09;;;;;;;8.82;5.70;;;4.90;99.90;;;;;;5033738;28;20414;-83
2022/09/29 05:02:35;;;;;;;15.02;6.72;;;4.90;99.90;;;;;;5015949;28;20054;-81
2022/09/29 05:05:01;;;;;;;7.53;5.95;;;4.90;99.90;;;;;;5030573;28;20050;-81
2022/09/29 05:07:27;;;;;;;11.07;7.00;;;5.00;99.90;;;;;;5022854;28;20033;-81
2022/09/29 05:09:53;;;;;;;29.77;14.80;;;5.00;99.90;;;;;;5039090;28;20331;-81
2022/09/29 05:12:19;;;;;;;27.25;7.57;;;5.00;99.90;;;;;;5042564;28;20041;-80
2022/09/29 05:14:45;;;;;;;12.38;7.32;;;5.10;99.90;;;;;;5024895;28;20188;-86
2022/09/29 05:17:11;;;;;;;21.90;7.10;;;5.00;99.90;;;;;;5034031;28;20112;-81
2022/09/29 05:19:37;;;;;;;10.18;6.97;;;5.00;99.90;;;;;;5037813;28;20466;-81
2022/09/29 05:22:03;;;;;;;25.40;14.13;;;4.90;99.90;;;;;;5041884;28;20044;-81
2022/09/29 05:24:28;;;;;;;12.88;7.28;;;5.00;99.90;;;;;;5007234;28;20065;-81
2022/09/29 05:26:54;;;;;;;11.35;7.70;;;5.00;99.90;;;;;;5015772;28;20045;-85
2022/09/29 05:29:20;;;;;;;11.38;7.10;;;4.90;99.90;;;;;;5027932;28;20067;-82
2022/09/29 05:31:46;;;;;;;11.18;7.00;;;4.80;99.90;;;;;;5040052;28;20049;-81
2022/09/29 05:34:11;;;;;;;9.80;5.90;;;4.90;99.90;;;;;;5038966;28;20043;-81
2022/09/29 05:36:37;;;;;;;10.40;5.95;;;4.90;99.90;;;;;;5021116;28;20782;-81
2022/09/29 05:39:03;;;;;;;8.57;5.60;;;5.00;99.90;;;;;;5042097;28;20487;-84
2022/09/29 05:41:29;;;;;;;7.90;5.65;;;4.90;99.90;;;;;;4981390;28;20447;-83
2022/09/29 05:43:55;;;;;;;8.15;6.05;;;5.00;99.90;;;;;;5013309;28;20133;-84
2022/09/29 05:46:22;;;;;;;9.75;6.00;;;4.90;99.90;;;;;;4982182;28;20132;-81
2022/09/29 05:48:50;;;;;;;6.50;5.00;;;4.90;99.90;;;;;;4999060;28;20056;-81
2022/09/29 05:51:19;;;;;;;7.30;5.57;;;5.00;99.90;;;;;;5033135;28;20128;-84
2022/09/29 05:53:45;;;;;;;11.48;5.38;;;5.00;99.90;;;;;;5032868;28;20061;-81
2022/09/29 05:56:13;;;;;;;9.32;5.97;;;5.00;99.90;;;;;;5015437;28;20103;-82
2022/09/29 05:58:40;;;;;;;7.22;5.55;;;5.00;99.90;;;;;;5031080;28;20049;-81
2022/09/29 06:01:07;;;;;;;7.63;6.13;;;5.10;99.90;;;;;;5015017;28;20395;-81
2022/09/29 06:03:35;;;;;;;7.50;5.50;;;5.10;99.90;;;;;;5018539;28;20491;-81
2022/09/29 06:06:18;;;;;;;7.85;5.70;;;5.20;99.90;;;;;;5052418;28;20115;-82
2022/09/29 06:08:45;;;;;;;6.35;4.95;;;5.10;99.90;;;;;;5003191;28;20076;-84
2022/09/29 06:11:12;;;;;;;9.88;5.97;;;5.10;99.90;;;;;;5033554;28;20052;-81
2022/09/29 06:13:39;;;;;;;9.02;6.05;;;5.20;99.90;;;;;;5034552;28;20055;-81
2022/09/29 06:16:05;;;;;;;8.70;6.63;;;5.20;99.90;;;;;;5028821;28;20045;-82
2022/09/29 06:18:31;;;;;;;8.45;6.60;;;5.20;99.90;;;;;;5037763;28;20480;-83
2022/09/29 06:21:01;;;;;;;9.15;6.45;;;5.30;99.90;;;;;;5026230;28;20052;-83
2022/09/29 06:23:26;;;;;;;8.50;6.22;;;5.30;99.90;;;;;;5052279;28;20045;-82
2022/09/29 06:26:00;;;;;;;8.07;5.85;;;5.40;99.90;;;;;;5034412;28;20048;-83
2022/09/29 06:28:30;;;;;;;10.57;6.47;;;5.50;99.90;;;;;;5018231;28;20056;-83
2022/09/29 06:31:03;;;;;;;8.68;6.47;;;5.50;99.90;;;;;;4998988;28;20163;-83
2022/09/29 06:33:31;;;;;;;13.48;6.55;;;5.60;99.90;;;;;;5013912;28;20376;-83
2022/09/29 06:38:44;;;;;;;9.23;5.35;;;5.70;99.90;;;;;;4994838;28;20057;-85
2022/09/29 06:41:09;;;;;;;7.38;5.80;;;5.80;99.90;;;;;;5022938;28;20424;-82
2022/09/29 06:43:35;;;;;;;12.23;7.32;;;5.80;99.90;;;;;;5011148;28;20059;-82
2022/09/29 06:46:02;;;;;;;8.38;6.57;;;5.90;99.90;;;;;;5034443;28;20036;-82
2022/09/29 06:48:28;;;;;;;8.05;5.95;;;5.90;99.90;;;;;;5017862;28;20088;-82
2022/09/29 06:50:55;;;;;;;8.68;5.60;;;6.00;99.90;;;;;;5042657;28;20076;-84
2022/09/29 06:53:21;;;;;;;7.93;6.05;;;6.00;99.90;;;;;;4981379;28;20099;-82
2022/09/29 06:55:55;;;;;;;9.52;6.40;;;6.00;99.90;;;;;;4980545;28;20412;-81
2022/09/29 06:58:21;;;;;;;9.13;5.95;;;6.00;99.90;;;;;;5013017;28;20483;-82
2022/09/29 07:00:47;;;;;;;8.18;6.10;;;6.10;99.90;;;;;;5014828;28;20048;-82
2022/09/29 07:03:13;;;;;;;8.32;6.18;;;6.20;99.90;;;;;;5029509;28;20050;-82
2022/09/29 07:05:39;;;;;;;13.02;6.45;;;6.30;99.90;;;;;;5047907;28;20103;-82
2022/09/29 07:08:04;;;;;;;9.80;6.45;;;6.40;99.90;;;;;;5028449;28;20132;-82
2022/09/29 07:10:30;;;;;;;9.15;6.28;;;6.50;99.90;;;;;;5030300;28;20133;-82
2022/09/29 07:12:56;;;;;;;11.57;6.18;;;6.60;99.90;;;;;;5021858;28;20049;-82
2022/09/29 07:15:30;;;;;;;8.45;6.55;;;6.60;99.90;;;;;;5044128;28;20041;-81
2022/09/29 07:17:57;;;;;;;11.05;7.10;;;6.80;99.90;;;;;;5002358;28;20044;-82
2022/09/29 07:20:23;;;;;;;11.25;7.05;;;6.90;99.90;;;;;;5034266;28;20071;-82
2022/09/29 07:22:48;;;;;;;9.88;6.82;;;7.10;99.90;;;;;;5011743;28;20045;-82
2022/09/29 07:25:14;;;;;;;11.65;6.63;;;7.70;99.90;;;;;;5030742;28;20050;-82
2022/09/29 07:27:40;;;;;;;8.32;6.53;;;8.40;99.90;;;;;;5013893;28;20140;-82
2022/09/29 07:30:06;;;;;;;10.35;6.40;;;9.00;99.90;;;;;;5031830;28;20053;-82
2022/09/29 07:32:32;;;;;;;8.10;6.13;;;9.50;99.90;;;;;;5016222;28;20049;-82
2022/09/29 07:34:58;;;;;;;9.60;5.93;;;9.80;99.90;;;;;;5046227;28;20056;-83
2022/09/29 07:37:25;;;;;;;7.25;5.70;;;9.50;99.90;;;;;;5048062;28;20399;-82
2022/09/29 07:39:52;;;;;;;7.55;5.22;;;9.30;99.90;;;;;;5034762;28;20139;-82
2022/09/29 07:42:18;;;;;;;6.70;5.00;;;9.00;99.90;;;;;;5046161;28;20463;-83
2022/09/29 07:44:44;;;;;;;7.38;5.85;;;8.70;99.90;;;;;;5016063;28;20053;-83
2022/09/29 07:47:09;;;;;;;7.55;6.10;;;8.40;99.90;;;;;;5035308;28;20142;-83
2022/09/29 07:49:35;;;;;;;7.43;5.50;;;8.30;99.90;;;;;;5017533;28;20057;-83
2022/09/29 07:52:01;;;;;;;8.05;5.82;;;8.20;99.90;;;;;;5016562;28;20060;-83
2022/09/29 07:54:26;;;;;;;8.20;5.93;;;8.10;99.90;;;;;;4998882;28;20068;-83
2022/09/29 07:56:52;;;;;;;9.00;5.53;;;8.10;99.90;;;;;;5033222;28;20045;-83
2022/09/29 07:59:18;;;;;;;6.93;5.07;;;8.20;99.90;;;;;;5017048;28;20345;-83
2022/09/29 08:01:44;;;;;;;7.72;5.75;;;8.20;99.90;;;;;;5022265;28;20427;-82
2022/09/29 08:04:09;;;;;;;8.52;5.50;;;8.20;99.90;;;;;;5046161;28;20068;-83
2022/09/29 08:06:35;;;;;;;7.50;5.78;;;8.20;99.90;;;;;;5000959;28;20077;-83
2022/09/29 08:09:01;;;;;;;7.78;5.60;;;8.20;99.90;;;;;;5017562;28;20053;-83
2022/09/29 08:11:27;;;;;;;7.40;5.25;;;8.10;99.90;;;;;;5017609;28;20049;-83
2022/09/29 08:13:53;;;;;;;9.13;6.20;;;8.10;99.90;;;;;;5034041;28;20049;-83
2022/09/29 08:16:19;;;;;;;11.65;6.78;;;8.20;99.90;;;;;;5035958;28;20496;-84
2022/09/29 08:18:44;;;;;;;9.63;5.90;;;8.20;99.90;;;;;;5017107;28;20076;-83
2022/09/29 08:21:11;;;;;;;9.38;7.40;;;8.10;99.90;;;;;;5017211;28;20107;-82
2022/09/29 08:23:39;;;;;;;9.02;6.85;;;8.20;99.90;;;;;;5001072;28;20045;-84
2022/09/29 08:26:08;;;;;;;9.32;6.47;;;8.30;99.90;;;;;;5029082;28;20084;-83
2022/09/29 08:28:36;;;;;;;12.02;7.07;;;8.30;99.90;;;;;;5035676;28;20049;-82
2022/09/29 08:31:13;;;;;;;9.50;7.13;;;8.40;99.90;;;;;;5053769;28;20052;-83
2022/09/29 08:33:39;;;;;;;9.15;6.45;;;8.50;99.90;;;;;;5037383;28;20044;-82
2022/09/29 08:36:13;;;;;;;8.63;6.38;;;8.50;99.90;;;;;;5043637;28;20403;-82
2022/09/29 08:38:48;;;;;;;10.13;6.28;;;8.60;99.90;;;;;;5017433;28;20142;-83
2022/09/29 08:41:27;;;;;;;9.80;6.70;;;8.70;99.90;;;;;;5017636;28;20065;-83
2022/09/29 08:44:02;;;;;;;7.55;5.57;;;8.80;99.90;;;;;;5036298;28;20128;-83
2022/09/29 08:46:33;;;;;;;9.98;7.05;;;8.90;99.90;;;;;;5010041;28;20037;-82
2022/09/29 08:49:06;;;;;;;8.68;6.22;;;9.10;99.90;;;;;;5026245;28;20049;-82
2022/09/29 08:51:42;;;;;;;9.05;6.18;;;9.20;99.90;;;;;;5040470;28;20041;-83
2022/09/29 08:54:20;;;;;;;7.38;5.30;;;9.40;99.90;;;;;;5036816;28;20490;-83
2022/09/29 08:56:45;;;;;;;8.93;6.15;;;9.40;99.90;;;;;;5011676;28;20407;-83
2022/09/29 08:59:11;;;;;;;7.55;5.38;;;9.50;99.90;;;;;;4999764;28;20048;-83
2022/09/29 09:02:15;;;;;;;10.35;6.05;;;9.70;99.90;;;;;;5016324;28;20057;-83
2022/09/29 09:05:16;;;;;;;10.90;6.60;;;9.80;99.90;;;;;;5032947;28;20049;-83
2022/09/29 09:08:10;;;;;;;9.70;6.38;;;9.90;99.90;;;;;;5015341;28;20431;-83
2022/09/29 09:10:45;;;;;;;9.30;6.22;;;10.20;99.90;;;;;;5018943;28;20440;-83
2022/09/29 09:13:14;;;;;;;9.98;6.90;;;10.40;99.90;;;;;;4996570;28;20408;-82
2022/09/29 09:15:40;;;;;;;9.85;6.53;;;10.40;99.90;;;;;;5003384;28;20068;-82
2022/09/29 09:18:24;;;;;;;9.55;6.20;;;10.50;99.90;;;;;;5016101;28;20084;-83
2022/09/29 09:20:59;;;;;;;9.23;6.68;;;10.70;99.90;;;;;;5023008;28;20107;-83
2022/09/29 09:23:46;;;;;;;11.63;6.60;;;10.80;99.90;;;;;;4999700;28;20136;-83
2022/09/29 09:26:13;;;;;;;7.60;5.90;;;11.00;99.90;;;;;;5016029;28;20048;-82
2022/09/29 09:28:53;;;;;;;9.50;6.63;;;11.50;99.90;;;;;;4999677;28;20053;-82
2022/09/29 09:31:59;;;;;;;7.78;5.97;;;12.40;99.90;;;;;;5015749;28;20088;-83
2022/09/29 09:34:48;;;;;;;8.63;6.85;;;13.30;99.90;;;;;;5015635;28;20140;-82
2022/09/29 09:37:21;;;;;;;9.73;6.47;;;14.10;99.90;;;;;;5032790;28;20037;-83
2022/09/29 09:39:52;;;;;;;9.10;6.30;;;14.60;99.90;;;;;;5044177;28;20052;-83
2022/09/29 09:42:24;;;;;;;7.70;5.90;;;15.10;99.90;;;;;;5018494;28;20065;-83
2022/09/29 09:45:01;;;;;;;8.48;6.68;;;15.60;99.90;;;;;;5052852;28;20530;-83
2022/09/29 09:47:38;;;;;;;7.63;5.85;;;15.90;99.90;;;;;;5034529;28;20053;-83
2022/09/29 09:50:13;;;;;;;9.07;5.72;;;16.10;99.90;;;;;;5016094;28;20452;-83
2022/09/29 09:52:55;;;;;;;5.80;5.20;;;16.30;99.90;;;;;;5028487;28;20053;-84
2022/09/29 09:55:24;;;;;;;6.82;5.45;;;16.50;99.90;;;;;;5007056;28;20377;-85
2022/09/29 09:58:21;;;;;;;6.22;4.88;;;16.60;99.90;;;;;;5031809;28;20068;-86
2022/09/29 10:01:03;;;;;;;6.22;4.47;;;16.60;99.90;;;;;;4996940;28;20534;-83
2022/09/29 10:03:29;;;;;;;5.82;4.57;;;16.40;99.90;;;;;;5014600;28;20049;-85
2022/09/29 10:05:56;;;;;;;4.53;4.00;;;16.10;99.90;;;;;;5032283;28;20051;-83
2022/09/29 10:08:39;;;;;;;8.43;4.45;;;15.90;99.90;;;;;;5009176;28;20551;-88
2022/09/29 10:11:18;;;;;;;6.18;4.20;;;15.70;99.90;;;;;;5015179;28;20471;-83
2022/09/29 10:13:45;;;;;;;5.85;5.05;;;15.40;99.90;;;;;;5048025;28;20050;-83
2022/09/29 10:16:23;;;;;;;6.90;4.40;;;15.20;99.90;;;;;;5014804;28;20057;-84
2022/09/29 10:18:51;;;;;;;6.15;4.30;;;15.10;99.90;;;;;;5013872;28;20083;-84
2022/09/29 10:21:42;;;;;;;4.53;3.75;;;14.90;99.90;;;;;;5031958;28;20041;-84
2022/09/29 10:24:29;;;;;;;7.43;4.38;;;14.90;99.90;;;;;;5018177;28;20435;-84
2022/09/29 10:26:58;;;;;;;5.43;3.53;;;14.90;99.90;;;;;;5020977;28;20053;-84
2022/09/29 10:29:32;;;;;;;4.68;3.40;;;14.90;99.90;;;;;;5013464;28;20061;-84
2022/09/29 10:32:07;;;;;;;5.57;3.90;;;15.00;99.90;;;;;;5012964;28;20128;-83
2022/09/29 10:34:39;;;;;;;3.55;3.25;;;15.00;99.90;;;;;;5030202;28;20057;-83
2022/09/29 10:37:19;;;;;;;4.68;3.45;;;15.00;99.90;;;;;;4992345;28;20440;-84
2022/09/29 10:39:47;;;;;;;4.70;3.20;;;15.00;99.90;;;;;;5012193;28;20056;-83
2022/09/29 10:42:37;;;;;;;6.60;3.33;;;15.00;99.90;;;;;;4995110;28;20088;-84
2022/09/29 10:45:07;;;;;;;2.97;2.58;;;15.10;99.90;;;;;;5022444;28;20056;-85
2022/09/29 10:47:36;;;;;;;6.60;2.70;;;15.20;99.90;;;;;;5049481;28;20052;-84
2022/09/29 10:50:15;;;;;;;6.97;2.95;;;15.20;99.90;;;;;;5017632;28;20048;-84
2022/09/29 10:52:46;;;;;;;3.78;2.88;;;15.20;99.90;;;;;;4988946;28;20432;-83
2022/09/29 10:55:25;;;;;;;4.93;2.83;;;15.10;99.90;;;;;;5023331;28;20100;-83
2022/09/29 10:57:53;;;;;;;3.47;2.55;;;15.10;99.90;;;;;;5023253;28;20050;-84
2022/09/29 11:00:33;;;;;;;4.18;2.85;;;15.10;99.90;;;;;;5037154;28;20077;-83
2022/09/29 11:03:03;;;;;;;4.65;3.28;;;15.10;99.90;;;;;;5039865;28;20072;-86
2022/09/29 11:05:30;;;;;;;5.30;2.97;;;15.10;99.90;;;;;;5039381;28;20042;-81
2022/09/29 11:07:55;;;;;;;4.57;2.70;;;15.10;99.90;;;;;;5021120;28;20046;-84
2022/09/29 11:10:36;;;;;;;4.00;3.35;;;15.10;99.90;;;;;;5018932;28;20061;-84
2022/09/29 11:13:20;;;;;;;5.80;3.75;;;15.10;99.90;;;;;;5022437;28;20072;-86
2022/09/29 11:15:50;;;;;;;3.78;2.90;;;15.10;99.90;;;;;;5043563;28;20041;-83
2022/09/29 11:18:31;;;;;;;4.00;3.22;;;15.10;99.90;;;;;;5031141;28;20128;-84
2022/09/29 11:21:20;;;;;;;5.03;3.25;;;15.10;99.90;;;;;;5044958;28;20103;-83
2022/09/29 11:24:11;;;;;;;6.68;3.60;;;15.30;99.90;;;;;;5029573;28;20049;-83
2022/09/29 11:27:04;;;;;;;5.28;4.25;;;15.40;99.90;;;;;;5025737;28;20068;-83
2022/09/29 11:30:07;;;;;;;4.35;3.40;;;15.40;99.90;;;;;;5054700;28;20053;-83
2022/09/29 11:32:57;;;;;;;3.90;3.42;;;15.40;99.90;;;;;;5044671;28;20049;-85
2022/09/29 11:35:59;;;;;;;5.07;3.60;;;15.60;99.90;;;;;;5044320;28;20059;-85
2022/09/29 11:38:31;;;;;;;;;;;15.50;99.90;;;;;;5045535;28;20055;-83
2022/09/29 11:41:03;;;;;;;6.80;4.00;;;15.60;99.90;;;;;;5023056;28;19921;-82
2022/09/29 11:43:54;;;;;;;4.63;2.95;;;15.70;99.90;;;;;;5039302;28;20053;-86
2022/09/29 11:46:44;;;;;;;6.00;3.78;;;15.80;99.90;;;;;;5031665;28;20041;-83
2022/09/29 11:49:16;;;;;;;5.93;4.68;;;15.80;99.90;;;;;;5019429;28;20064;-83
2022/09/29 11:52:19;;;;;;;7.47;4.65;;;15.80;99.90;;;;;;5001764;28;20395;-85
2022/09/29 11:55:41;;;;;;;5.07;3.83;;;16.00;99.90;;;;;;5044499;28;20056;-83
2022/09/29 11:58:37;;;;;;;4.45;3.53;;;16.10;99.90;;;;;;5007106;28;20049;-82
2022/09/29 12:01:29;;;;;;;4.53;2.85;;;16.20;99.90;;;;;;5057315;28;20128;-82
2022/09/29 12:04:04;;;;;;;;;;;16.30;99.90;;;;;;5063274;28;20048;-83
2022/09/29 12:06:52;;;;;;;5.38;3.85;;;16.40;99.90;;;;;;5062440;28;19928;-84
2022/09/29 12:09:36;;;;;;;5.32;3.70;;;16.40;99.90;;;;;;5044977;28;20047;-84
2022/09/29 12:12:33;;;;;;;6.07;3.50;;;16.30;99.90;;;;;;5045093;28;20055;-83
2022/09/29 12:15:05;;;;;;;8.55;5.57;;;16.40;99.90;;;;;;5029869;28;20050;-88
2022/09/29 12:17:35;;;;;;;7.03;4.05;;;16.40;99.90;;;;;;5023823;28;20471;-82
2022/09/29 12:20:33;;;;;;;4.80;3.20;;;16.50;99.90;;;;;;5042372;28;20515;-83
2022/09/29 12:23:04;;;;;;;5.43;2.58;;;16.60;99.90;;;;;;5038303;28;20161;-84
2022/09/29 12:25:34;;;;;;;4.35;3.13;;;16.60;99.90;;;;;;5056928;28;20041;-83
2022/09/29 12:28:14;;;;;;;4.70;3.10;;;16.80;99.90;;;;;;5024206;28;20041;-85
2022/09/29 12:30:50;;;;;;;5.43;3.35;;;16.80;99.90;;;;;;5007415;28;20097;-83
2022/09/29 12:33:19;;;;;;;4.45;2.20;;;16.60;99.90;;;;;;5021929;28;20049;-83
2022/09/29 12:36:42;;;;;;;2.70;2.20;;;16.50;99.90;;;;;;5037994;28;20046;-83
2022/09/29 12:38:58;;;;;;;3.28;2.40;;;16.30;99.90;;;;;;5026411;28;20489;-84
2022/09/29 12:41:31;;;;;;;4.60;2.08;;;16.30;99.90;;;;;;5033890;28;20124;-88
2022/09/29 12:44:07;;;;;;;3.78;2.00;;;16.30;99.90;;;;;;5021236;28;20050;-83
2022/09/29 12:46:45;;;;;;;2.58;1.75;;;16.30;99.90;;;;;;5023567;28;20046;-82
2022/09/29 12:49:16;;;;;;;3.45;2.08;;;16.50;99.90;;;;;;5002603;28;20408;-83
2022/09/29 12:51:45;;;;;;;2.95;1.77;;;16.50;99.90;;;;;;5014889;28;20050;-83
2022/09/29 12:54:38;;;;;;;3.05;1.90;;;16.50;99.90;;;;;;5035556;28;20062;-84
2022/09/29 12:57:14;;;;;;;3.25;2.85;;;16.60;99.90;;;;;;5038775;28;20046;-84
2022/09/29 12:59:49;;;;;;;6.53;2.72;;;16.70;99.90;;;;;;5038793;28;20057;-83
2022/09/29 13:02:30;;;;;;;3.70;2.65;;;16.70;99.90;;;;;;5031207;28;20052;-84
2022/09/29 13:05:17;;;;;;;4.28;2.50;;;16.80;99.90;;;;;;5040272;28;20053;-84
2022/09/29 13:08:20;;;;;;;1.80;1.45;;;16.80;99.90;;;;;;5035256;28;20092;-89
2022/09/29 13:11:04;;;;;;;2.05;1.60;;;16.80;99.90;;;;;;5033205;28;20373;-82
2022/09/29 13:14:04;;;;;;;2.53;1.63;;;17.00;99.90;;;;;;5017079;28;20540;-84
2022/09/29 13:16:55;;;;;;;3.35;2.30;;;17.10;99.90;;;;;;5034023;28;20107;-83
2022/09/29 13:19:40;;;;;;;4.55;2.33;;;17.20;99.90;;;;;;5013876;28;20057;-84
2022/09/29 13:22:33;;;;;;;3.17;2.08;;;17.50;99.90;;;;;;5028099;28;20107;-84
2022/09/29 13:25:31;;;;;;;2.63;1.65;;;17.40;99.90;;;;;;5032666;28;20049;-85
2022/09/29 13:27:58;;;;;;;3.63;2.28;;;17.40;99.90;;;;;;5015109;28;20037;-84